»·PEaware :: N786B KPAE-KPDX

N786B :: KPAE-KPDX

FLIGHT INFORMATION

Flight Status: Arrived
Operator: Privately registered:
United States
More flights under this callsign
Pilot: Sulaiman S. (16428)
Aircraft: Unknown
(/W)
More flights by this aircraft type
Origin: KPAE Paine Field/Snohomish Co.
United States
Destination: KPDX Portland Intl
United States
More flights between these airports :: More routes between these airports
Route: +PAE V287 BTG
File this flight plan on PilotEdge
Remarks:
Altitude:
(Current/Filed)
7,000ft
Speed:
(Current/Filed)
180kts
Departed: 01-Aug-20 03:13 PM
Arrived: 01-Aug-20 04:56 PM
Distance/Time
Traveled:
140nm/1:42
Distance/Time
To Go:
Arrived

Flight Plot

Page will automatically refresh every two minutes.


Map Options




Map Legend


Flown Route
Filed Route
Departure Airport
Arrival Airport
Navaid (VOR, NDB)
Fix

Horizontal Profiles

Position Reports

Time Latitude Longitude Heading Altitude Ground
Speed
01-Aug-20 14:42 47.904406 -122.276142 47 573ft 0kts
01-Aug-20 14:43 47.904408 -122.276138 47 573ft 0kts
01-Aug-20 14:44 47.904411 -122.276134 47 573ft 0kts
01-Aug-20 14:45 47.904414 -122.276129 47 573ft 0kts
01-Aug-20 14:46 47.904417 -122.276125 47 573ft 0kts
01-Aug-20 14:47 47.904419 -122.276120 47 573ft 0kts
01-Aug-20 14:48 47.904422 -122.276116 47 573ft 0kts
01-Aug-20 14:49 47.904425 -122.276112 47 573ft 0kts
01-Aug-20 14:50 47.904428 -122.276107 47 573ft 0kts
01-Aug-20 14:51 47.904430 -122.276103 47 573ft 0kts
01-Aug-20 14:52 47.904433 -122.276098 47 573ft 0kts
01-Aug-20 14:53 47.904436 -122.276094 47 573ft 0kts
01-Aug-20 14:54 47.904439 -122.276090 47 573ft 0kts
01-Aug-20 14:55 47.904441 -122.276085 47 573ft 0kts
01-Aug-20 14:56 47.904444 -122.276081 47 573ft 0kts
01-Aug-20 14:57 47.904447 -122.276076 47 573ft 0kts
01-Aug-20 14:58 47.904450 -122.276072 47 573ft 0kts
01-Aug-20 14:59 47.904452 -122.276068 47 573ft 0kts
01-Aug-20 15:00 47.904455 -122.276063 47 573ft 0kts
01-Aug-20 15:01 47.904458 -122.276059 47 573ft 0kts
01-Aug-20 15:02 47.905032 -122.276952 312 573ft 0kts
01-Aug-20 15:03 47.905035 -122.276956 312 573ft 0kts
01-Aug-20 15:04 47.905037 -122.276960 312 573ft 0kts
01-Aug-20 15:05 47.903646 -122.275512 133 573ft 18kts
01-Aug-20 15:06 47.900594 -122.272214 179 573ft 14kts
01-Aug-20 15:07 47.898764 -122.271987 143 573ft 0kts
01-Aug-20 15:08 47.898759 -122.271981 143 573ft 0kts
01-Aug-20 15:09 47.898754 -122.271976 143 573ft 0kts
01-Aug-20 15:10 47.898748 -122.271970 143 573ft 0kts
01-Aug-20 15:11 47.898682 -122.271606 352 573ft 0kts
01-Aug-20 15:12 47.917266 -122.269202 359 1264ft 118kts
01-Aug-20 15:13 47.958375 -122.265982 2 1991ft 181kts
01-Aug-20 15:14 48.011271 -122.263004 1 1995ft 193kts
01-Aug-20 15:15 48.065124 -122.260567 0 1988ft 194kts
01-Aug-20 15:16 48.119197 -122.259186 0 1980ft 195kts
01-Aug-20 15:17 48.173723 -122.258012 0 1979ft 195kts
01-Aug-20 15:18 48.227976 -122.257391 353 1985ft 195kts
01-Aug-20 15:19 48.229164 -122.306842 176 2412ft 170kts
01-Aug-20 15:20 48.188700 -122.273407 169 3345ft 171kts
01-Aug-20 15:21 48.141192 -122.269741 181 3873ft 172kts
01-Aug-20 15:22 48.096512 -122.271102 182 5014ft 136kts
01-Aug-20 15:23 48.061658 -122.272010 181 6467ft 133kts
01-Aug-20 15:26 47.923985 -122.281733 212 7006ft 183kts
01-Aug-20 15:27 47.906561 -122.352804 252 6996ft 181kts
01-Aug-20 15:28 47.892654 -122.424030 251 6993ft 177kts
01-Aug-20 15:29 47.879009 -122.494070 253 6994ft 177kts
01-Aug-20 15:30 47.868691 -122.566833 256 6990ft 184kts
01-Aug-20 15:31 47.858088 -122.642145 256 6981ft 180kts
01-Aug-20 15:32 47.847831 -122.714605 256 6977ft 179kts
01-Aug-20 15:33 47.824567 -122.771212 179 6985ft 178kts
01-Aug-20 15:34 47.774775 -122.781904 194 6978ft 180kts
01-Aug-20 15:35 47.726334 -122.787137 152 6983ft 184kts
01-Aug-20 15:36 47.677544 -122.767297 174 6982ft 182kts
01-Aug-20 15:37 47.633258 -122.794275 211 6994ft 189kts
01-Aug-20 15:38 47.584779 -122.824381 203 6989ft 183kts
01-Aug-20 15:39 47.538350 -122.849320 188 6988ft 181kts
01-Aug-20 15:41 47.488283 -122.843393 173 6987ft 180kts
01-Aug-20 15:42 47.438331 -122.839076 181 6992ft 181kts
01-Aug-20 15:43 47.386856 -122.843574 184 6984ft 184kts
01-Aug-20 15:44 47.335525 -122.849262 188 6982ft 185kts
01-Aug-20 15:45 47.283547 -122.858689 186 6977ft 187kts
01-Aug-20 15:46 47.231436 -122.866061 186 6969ft 184kts
01-Aug-20 15:47 47.180731 -122.873006 186 6972ft 182kts
01-Aug-20 15:48 47.130220 -122.880076 185 6968ft 182kts
01-Aug-20 15:49 47.078891 -122.887062 186 6978ft 190kts
01-Aug-20 15:50 47.026074 -122.894384 186 6976ft 187kts
01-Aug-20 15:51 46.973722 -122.901502 183 6979ft 186kts
01-Aug-20 15:52 46.922910 -122.889863 173 6983ft 185kts
01-Aug-20 15:53 46.871886 -122.876636 169 6981ft 187kts
01-Aug-20 15:54 46.820473 -122.862004 170 6976ft 186kts
01-Aug-20 15:55 46.769909 -122.848304 169 6971ft 185kts
01-Aug-20 15:56 46.719364 -122.834276 170 6974ft 185kts
01-Aug-20 15:56 46.677105 -122.822333 170 6974ft 185kts
01-Aug-20 15:58 46.617913 -122.807375 172 6972ft 185kts
01-Aug-20 15:59 46.566757 -122.796138 180 6988ft 189kts
01-Aug-20 15:59 46.522884 -122.785444 166 6980ft 190kts
01-Aug-20 16:00 46.469872 -122.771986 174 6954ft 190kts
01-Aug-20 16:01 46.418135 -122.762965 171 6966ft 190kts
01-Aug-20 16:03 46.356529 -122.747558 170 6981ft 188kts
01-Aug-20 16:03 46.314942 -122.736158 170 6979ft 178kts
01-Aug-20 16:04 46.265001 -122.724697 172 6964ft 180kts
01-Aug-20 16:05 46.215254 -122.711004 170 6964ft 188kts
01-Aug-20 16:06 46.163182 -122.700941 179 6963ft 189kts
01-Aug-20 16:07 46.111083 -122.687672 173 6964ft 189kts
01-Aug-20 16:08 46.058369 -122.674722 166 6963ft 192kts
01-Aug-20 16:09 46.005923 -122.663446 172 6946ft 188kts
01-Aug-20 16:10 45.955851 -122.652106 172 6196ft 179kts
01-Aug-20 16:11 45.907614 -122.637820 165 5192ft 176kts
01-Aug-20 16:12 45.861357 -122.624403 170 4945ft 159kts
01-Aug-20 16:13 45.818119 -122.612196 170 4937ft 154kts
01-Aug-20 16:14 45.777443 -122.600677 170 4935ft 145kts
01-Aug-20 16:15 45.740636 -122.574688 140 4930ft 156kts
01-Aug-20 16:16 45.706976 -122.534506 141 4930ft 154kts
01-Aug-20 16:17 45.672357 -122.496694 146 4933ft 153kts
01-Aug-20 16:18 45.633943 -122.462294 147 4934ft 173kts
01-Aug-20 16:19 45.592313 -122.426898 147 4938ft 175kts
01-Aug-20 16:20 45.554512 -122.387488 146 4249ft 144kts
01-Aug-20 16:21 45.520925 -122.352117 146 3634ft 168kts
01-Aug-20 16:22 45.481080 -122.310535 143 3635ft 183kts
01-Aug-20 16:23 45.439534 -122.267023 137 3632ft 185kts
01-Aug-20 16:26 45.499529 -122.352146 297 2819ft 163kts
01-Aug-20 16:27 45.521813 -122.409335 298 2570ft 169kts
01-Aug-20 16:28 45.543834 -122.465543 299 1691ft 142kts
01-Aug-20 16:29 45.561791 -122.511180 298 969ft 125kts
01-Aug-20 16:30 45.578123 -122.552994 299 320ft 117kts
01-Aug-20 16:31 45.596486 -122.596191 326 972ft 145kts
01-Aug-20 16:32 45.636315 -122.603928 5 2275ft 150kts
01-Aug-20 16:33 45.677952 -122.599208 4 3629ft 149kts
01-Aug-20 16:34 45.725363 -122.594127 2 4125ft 187kts
01-Aug-20 16:35 45.777420 -122.587027 5 4137ft 189kts
01-Aug-20 16:36 45.830829 -122.578945 5 4133ft 191kts
01-Aug-20 16:37 45.884490 -122.574274 335 4137ft 191kts
01-Aug-20 16:38 45.869800 -122.622290 171 4134ft 198kts
01-Aug-20 16:39 45.823327 -122.604373 171 4138ft 192kts
01-Aug-20 16:40 45.769136 -122.595274 178 4130ft 194kts
01-Aug-20 16:41 45.724887 -122.554553 148 4130ft 193kts
01-Aug-20 16:42 45.678417 -122.511676 158 3920ft 206kts
01-Aug-20 16:43 45.631493 -122.469378 148 3640ft 197kts
01-Aug-20 16:44 45.587259 -122.422219 143 3666ft 192kts
01-Aug-20 16:45 45.544359 -122.377261 144 3700ft 192kts
01-Aug-20 16:46 45.500204 -122.330709 143 3697ft 195kts
01-Aug-20 16:47 45.457852 -122.286141 145 3693ft 155kts
01-Aug-20 16:48 45.443902 -122.238064 28 3698ft 162kts
01-Aug-20 16:49 45.471094 -122.270261 287 3703ft 156kts
01-Aug-20 16:50 45.490702 -122.328586 297 3437ft 173kts
01-Aug-20 16:51 45.514803 -122.390413 298 2863ft 172kts
01-Aug-20 16:52 45.539279 -122.453121 298 2076ft 184kts
01-Aug-20 16:53 45.564560 -122.518009 296 906ft 184kts
01-Aug-20 16:54 45.582093 -122.562921 297 136ft 90kts
01-Aug-20 16:55 45.586722 -122.575981 237 21ft 0kts
01-Aug-20 16:56 45.585340 -122.578216 211 21ft 9kts
01-Aug-20 16:57 45.585188 -122.578340 210 21ft 0kts
01-Aug-20 16:58 45.585184 -122.578343 210 21ft 0kts
01-Aug-20 16:59 45.586302 -122.581484 29 21ft 2kts
01-Aug-20 17:00 45.586367 -122.581424 27 21ft 0kts
01-Aug-20 17:01 45.586371 -122.581420 27 21ft 0kts
01-Aug-20 17:02 45.586374 -122.581418 27 21ft 0kts
01-Aug-20 17:03 45.586377 -122.581416 27 21ft 0kts
01-Aug-20 17:04 45.586377 -122.581416 27 21ft 0kts

Navigation Log

Ident Type
Flight plan parsing failed, navigation log unavailable